createdAt,value
2022-09-14T00:04:16.088Z,16.30
2022-09-14T00:09:18.725Z,16.30
2022-09-14T00:14:17.177Z,16.30
2022-09-14T00:19:19.030Z,16.20
2022-09-14T00:24:18.739Z,16.10
2022-09-14T00:29:17.173Z,16.10
2022-09-14T00:34:17.240Z,16.10
2022-09-14T00:39:16.330Z,16.00
2022-09-14T00:44:52.617Z,16.00
2022-09-14T00:49:52.177Z,15.90
2022-09-14T00:54:52.912Z,15.90
2022-09-14T00:59:52.680Z,15.80
2022-09-14T01:04:52.842Z,15.80
2022-09-14T01:10:01.212Z,15.70
2022-09-14T01:15:06.052Z,15.70
2022-09-14T01:20:15.489Z,15.70
2022-09-14T01:25:28.922Z,15.60
2022-09-14T01:30:32.963Z,15.50
2022-09-14T01:35:37.744Z,15.60
2022-09-14T01:40:38.677Z,15.50
2022-09-14T01:45:42.170Z,15.40
2022-09-14T01:50:43.744Z,15.40
2022-09-14T01:55:47.160Z,15.40
2022-09-14T02:00:48.300Z,15.30
2022-09-14T02:05:53.492Z,15.30
2022-09-14T02:10:51.748Z,15.10
2022-09-14T02:15:51.437Z,15.00
2022-09-14T02:20:54.513Z,14.90
2022-09-14T02:25:52.997Z,14.90
2022-09-14T02:31:03.016Z,14.90
2022-09-14T02:36:05.773Z,14.90
2022-09-14T02:41:13.682Z,14.90
2022-09-14T02:46:18.412Z,14.90
2022-09-14T02:51:25.376Z,14.90
2022-09-14T02:56:23.837Z,14.90
2022-09-14T03:01:24.833Z,14.90
2022-09-14T03:06:23.312Z,14.90
2022-09-14T03:11:21.563Z,14.80
2022-09-14T03:16:20.980Z,14.70
2022-09-14T03:21:20.645Z,14.70
2022-09-14T03:26:21.651Z,14.70
2022-09-14T03:31:20.426Z,14.70
2022-09-14T03:36:21.019Z,14.60
2022-09-14T03:41:19.837Z,14.60
2022-09-14T03:46:20.644Z,14.60
2022-09-14T03:51:18.939Z,14.60
2022-09-14T03:56:20.541Z,14.60
2022-09-14T04:01:20.644Z,14.60
2022-09-14T04:06:19.900Z,14.50
2022-09-14T04:11:21.299Z,14.50
2022-09-14T04:16:20.990Z,14.50
2022-09-14T04:21:20.594Z,14.40
2022-09-14T04:26:21.685Z,14.40
2022-09-14T04:31:19.941Z,14.40
2022-09-14T04:36:19.354Z,14.40
2022-09-14T04:41:20.447Z,14.40
2022-09-14T04:46:20.640Z,14.30
2022-09-14T04:51:20.351Z,14.20
2022-09-14T04:56:22.247Z,14.30
2022-09-14T05:01:23.020Z,14.40
2022-09-14T05:06:22.626Z,14.40
2022-09-14T05:11:23.712Z,14.50
2022-09-14T05:16:23.535Z,14.60
2022-09-14T05:21:22.908Z,14.60
2022-09-14T05:26:22.700Z,14.60
2022-09-14T05:31:21.435Z,14.60
2022-09-14T05:36:20.285Z,14.50
2022-09-14T05:41:18.423Z,14.50
2022-09-14T05:46:20.788Z,14.60
2022-09-14T05:51:20.561Z,14.70
2022-09-14T05:56:19.813Z,14.70
2022-09-14T06:01:21.774Z,14.70
2022-09-14T06:06:21.220Z,14.60
2022-09-14T06:11:20.797Z,14.70
2022-09-14T06:16:21.540Z,14.70
2022-09-14T06:21:22.149Z,14.90
2022-09-14T06:26:20.780Z,15.00
2022-09-14T06:31:22.538Z,15.00
2022-09-14T06:36:21.883Z,15.10
2022-09-14T06:41:21.712Z,15.10
2022-09-14T06:46:23.534Z,15.30
2022-09-14T06:51:23.328Z,15.50
2022-09-14T06:56:21.900Z,15.70
2022-09-14T07:01:22.362Z,16.00
2022-09-14T07:06:22.661Z,16.20
2022-09-14T07:11:22.553Z,16.40
2022-09-14T07:16:22.555Z,16.30
2022-09-14T07:21:21.271Z,16.20
2022-09-14T07:26:22.009Z,16.00
2022-09-14T07:31:23.749Z,16.00
2022-09-14T07:36:22.625Z,16.20
2022-09-14T07:41:21.068Z,16.50
2022-09-14T07:46:21.347Z,16.70
2022-09-14T07:51:19.368Z,16.90
2022-09-14T07:56:17.722Z,17.10
2022-09-14T08:01:18.420Z,17.10
2022-09-14T08:06:20.127Z,17.30
2022-09-14T08:11:20.480Z,17.60
2022-09-14T08:16:19.381Z,17.60
2022-09-14T08:21:19.001Z,17.90
2022-09-14T08:26:18.677Z,18.10
2022-09-14T08:31:18.597Z,18.60
2022-09-14T08:36:20.201Z,19.20
2022-09-14T08:41:27.282Z,19.90
2022-09-14T08:46:31.137Z,20.30
2022-09-14T08:51:31.149Z,21.10
2022-09-14T08:56:34.215Z,21.90
2022-09-14T09:01:44.741Z,22.30
2022-09-14T09:06:50.842Z,22.10
2022-09-14T09:11:52.266Z,21.50
2022-09-14T09:16:54.928Z,20.80
2022-09-14T09:21:54.503Z,19.80
2022-09-14T09:26:52.733Z,19.50
2022-09-14T09:31:53.318Z,19.50
2022-09-14T09:37:15.848Z,19.70
2022-09-14T09:42:16.951Z,20.00
2022-09-14T09:47:14.885Z,20.30
2022-09-14T09:52:16.069Z,21.70
2022-09-14T09:57:23.035Z,21.80
2022-09-14T10:02:27.907Z,21.50
2022-09-14T10:07:28.259Z,21.70
2022-09-14T10:12:27.568Z,21.70
2022-09-14T10:17:25.866Z,21.40
2022-09-14T10:22:29.591Z,21.00
2022-09-14T10:27:40.800Z,20.60
2022-09-14T10:32:41.855Z,20.70
2022-09-14T10:37:51.085Z,21.40
2022-09-14T10:42:58.909Z,21.90
2022-09-14T10:48:32.246Z,22.00
2022-09-14T10:53:45.169Z,22.00
2022-09-14T10:59:04.128Z,23.20
2022-09-14T11:04:21.467Z,23.70
2022-09-14T11:09:25.730Z,23.80
2022-09-14T11:14:38.881Z,23.90
2022-09-14T11:19:45.319Z,23.90
2022-09-14T11:24:48.240Z,23.30
2022-09-14T11:29:50.138Z,22.60
2022-09-14T11:34:54.695Z,22.40
2022-09-14T11:40:16.500Z,22.40
2022-09-14T11:45:23.646Z,23.00
2022-09-14T11:50:25.159Z,22.70
2022-09-14T11:55:24.592Z,22.50
2022-09-14T12:01:01.414Z,22.70
2022-09-14T12:06:37.788Z,22.90
2022-09-14T12:11:37.682Z,22.20
2022-09-14T12:17:17.299Z,21.60
2022-09-14T12:22:29.419Z,21.50
2022-09-14T12:27:32.264Z,21.20
2022-09-14T12:32:41.848Z,21.10
2022-09-14T12:37:40.913Z,21.00
2022-09-14T12:42:40.205Z,21.10
2022-09-14T12:47:51.918Z,20.90
2022-09-14T12:53:03.807Z,20.90
2022-09-14T12:58:10.956Z,21.10
2022-09-14T13:03:27.557Z,21.40
2022-09-14T13:08:26.074Z,21.30
2022-09-14T13:13:29.473Z,21.20
2022-09-14T13:18:33.433Z,20.90
2022-09-14T13:23:33.975Z,20.80
2022-09-14T13:28:33.341Z,20.90
2022-09-14T13:33:31.479Z,20.90
2022-09-14T13:38:33.903Z,20.80
2022-09-14T13:43:33.605Z,20.50
2022-09-14T13:48:31.799Z,20.40
2022-09-14T13:53:45.646Z,20.30
2022-09-14T13:58:45.083Z,20.20
2022-09-14T14:03:48.504Z,20.10
2022-09-14T14:08:52.658Z,20.00
2022-09-14T14:13:52.343Z,20.10
2022-09-14T14:18:53.101Z,20.20
2022-09-14T14:24:12.050Z,20.20
2022-09-14T14:29:16.140Z,20.10
2022-09-14T14:34:20.884Z,20.00
2022-09-14T14:39:20.767Z,20.10
2022-09-14T14:44:22.925Z,20.00
2022-09-14T14:49:22.663Z,19.90
2022-09-14T14:54:21.269Z,19.80
2022-09-14T14:59:31.059Z,19.80
2022-09-14T15:04:29.415Z,19.80
2022-09-14T15:09:29.650Z,19.90
2022-09-14T15:14:29.357Z,19.90
2022-09-14T15:19:28.121Z,19.90
2022-09-14T15:24:26.075Z,19.80
2022-09-14T15:29:25.629Z,19.80
2022-09-14T15:34:25.354Z,19.70
2022-09-14T15:39:25.200Z,19.60
2022-09-14T15:44:23.422Z,19.50
2022-09-14T15:49:24.493Z,19.50
2022-09-14T15:54:24.729Z,19.50
2022-09-14T15:59:23.362Z,19.50
2022-09-14T16:04:21.978Z,19.40
2022-09-14T16:09:22.436Z,19.30
2022-09-14T16:14:20.478Z,19.30
2022-09-14T16:19:18.409Z,19.30
2022-09-14T16:24:18.021Z,19.30
2022-09-14T16:29:18.799Z,19.40
2022-09-14T16:34:19.868Z,19.40
2022-09-14T16:39:20.424Z,19.40
2022-09-14T16:44:21.592Z,19.30
2022-09-14T16:49:23.596Z,19.30
2022-09-14T16:54:26.377Z,19.30
2022-09-14T16:59:25.684Z,19.30
2022-09-14T17:04:24.684Z,19.20
2022-09-14T17:09:24.530Z,19.10
2022-09-14T17:14:25.654Z,19.10
2022-09-14T17:19:24.203Z,19.10
2022-09-14T17:24:22.543Z,19.00
2022-09-14T17:29:20.555Z,19.00
2022-09-14T17:34:19.943Z,18.90
2022-09-14T17:39:17.911Z,18.90
2022-09-14T17:44:16.317Z,18.90
2022-09-14T17:49:14.587Z,18.90
2022-09-14T17:54:14.203Z,18.90
2022-09-14T17:59:14.084Z,18.90
2022-09-14T18:04:14.034Z,18.80
2022-09-14T18:09:16.601Z,18.80
2022-09-14T18:14:15.936Z,18.80
2022-09-14T18:19:14.703Z,18.80
2022-09-14T18:24:15.099Z,18.80
2022-09-14T18:29:15.932Z,18.70
2022-09-14T18:34:13.984Z,18.70
2022-09-14T18:39:14.834Z,18.70
2022-09-14T18:44:12.905Z,18.60
2022-09-14T18:49:10.822Z,18.60
2022-09-14T18:54:09.017Z,18.60
2022-09-14T18:59:11.396Z,18.50
2022-09-14T19:04:11.205Z,18.50
2022-09-14T19:09:09.207Z,18.50
2022-09-14T19:14:10.444Z,18.40
2022-09-14T19:19:14.443Z,18.40
2022-09-14T19:24:14.221Z,18.40
2022-09-14T19:29:14.150Z,18.30
2022-09-14T19:34:12.581Z,18.30
2022-09-14T19:39:10.773Z,18.20
2022-09-14T19:44:09.945Z,18.20
2022-09-14T19:49:14.410Z,18.20
2022-09-14T19:54:13.005Z,18.10
2022-09-14T19:59:11.186Z,18.10
2022-09-14T20:04:11.447Z,18.10
2022-09-14T20:09:12.119Z,18.00
2022-09-14T20:14:14.250Z,18.00
2022-09-14T20:19:14.963Z,17.90
2022-09-14T20:24:16.577Z,17.90
2022-09-14T20:29:16.625Z,17.80
2022-09-14T20:34:18.099Z,17.80
2022-09-14T20:39:16.681Z,17.70
2022-09-14T20:44:15.813Z,17.70
2022-09-14T20:49:16.449Z,17.60
2022-09-14T20:54:17.004Z,17.50
2022-09-14T20:59:16.857Z,17.40
2022-09-14T21:04:18.294Z,17.40
2022-09-14T21:09:18.740Z,17.30
2022-09-14T21:14:18.830Z,17.30
2022-09-14T21:19:20.397Z,17.30
2022-09-14T21:24:20.076Z,17.30
2022-09-14T21:29:22.826Z,17.30
2022-09-14T21:34:22.331Z,17.30
2022-09-14T21:39:23.840Z,17.20
2022-09-14T21:44:21.990Z,17.20
2022-09-14T21:49:22.394Z,17.10
2022-09-14T21:54:20.914Z,17.10
2022-09-14T21:59:20.369Z,17.00
2022-09-14T22:04:20.857Z,17.00
2022-09-14T22:09:22.344Z,17.00
2022-09-14T22:14:22.334Z,17.00
2022-09-14T22:19:21.809Z,17.00
2022-09-14T22:24:23.281Z,16.90
2022-09-14T22:29:21.260Z,16.90
2022-09-14T22:34:21.163Z,16.90
2022-09-14T22:39:19.390Z,16.90
2022-09-14T22:44:18.748Z,16.80
2022-09-14T22:49:17.411Z,16.70
2022-09-14T22:54:15.318Z,16.70
2022-09-14T22:59:13.353Z,16.60
2022-09-14T23:04:14.268Z,16.60
2022-09-14T23:09:14.663Z,16.60
2022-09-14T23:14:13.013Z,16.50
2022-09-14T23:19:16.288Z,16.50
2022-09-14T23:24:14.564Z,16.50
2022-09-14T23:29:15.708Z,16.40
2022-09-14T23:34:15.142Z,16.40
2022-09-14T23:39:13.176Z,16.30
2022-09-14T23:44:12.650Z,16.30
2022-09-14T23:49:12.304Z,16.30
2022-09-14T23:54:12.480Z,16.30
2022-09-14T23:59:12.521Z,16.30
